Date,TemperatureHighF,TemperatureAvgF,TemperatureLowF,DewpointHighF,DewpointAvgF,DewpointLowF,HumidityHigh,HumidityAvg,HumidityLow,PressureMaxIn,PressureMinIn,WindSpeedMaxMPH,WindSpeedAvgMPH,GustSpeedMaxMPH,PrecipitationSumIn
2013-2-1,30.2,16.6,1.3,21.3,10.0,-3.4,92,75,64,30.52,30.14,24,6,24,0.00
2013-2-2,47.6,35.1,24.2,39.2,28.6,20.3,91,78,56,30.24,30.08,24,2,24,0.00
2013-2-3,45.1,36.1,25.3,32.2,27.7,21.8,89,72,50,30.26,29.81,24,3,24,0.00
2013-2-4,38.7,29.4,25.3,30.7,24.9,21.8,92,83,73,30.05,29.80,19,3,21,0.00
2013-2-5,52.9,39.1,27.4,34.2,28.6,25.1,92,69,38,30.08,29.89,20,2,21,0.00
2013-2-6,59.5,44.5,34.4,43.5,35.6,28.4,89,72,52,30.08,29.81,23,3,23,0.00
2013-2-7,42.4,35.9,30.1,39.1,31.1,25.8,91,83,77,30.27,29.88,22,6,22,0.00
2013-2-8,39.8,32.2,27.4,31.4,27.1,23.6,91,82,71,30.37,30.15,16,3,17,0.00
2013-2-9,53.3,40.9,30.4,41.4,34.5,27.8,91,79,61,30.16,29.63,28,7,28,0.00
2013-2-10,45.4,38.6,33.5,43.2,33.4,24.1,96,82,66,29.89,29.25,35,10,37,0.06
2013-2-11,40.2,33.2,25.6,26.4,23.7,21.6,86,68,53,30.19,29.89,30,6,33,0.00
2013-2-12,49.2,33.8,19.3,26.3,21.6,16.3,92,65,33,30.19,29.94,22,3,22,0.00
2013-2-13,54.2,39.4,25.4,31.7,27.0,21.6,92,64,34,29.95,29.75,21,3,21,0.00
2013-2-14,45.2,38.3,22.9,32.5,27.4,15.4,86,66,40,30.32,29.83,30,8,30,0.00
2013-2-15,34.9,25.5,17.1,26.7,18.5,12.6,91,76,48,30.41,30.31,22,4,22,0.00
2013-2-16,38.7,26.7,12.9,26.5,19.7,10.0,89,76,53,30.40,30.03,19,3,20,0.00
2013-2-17,62.1,41.3,24.5,35.4,29.2,21.2,89,66,33,30.03,29.54,22,3,22,0.00
2013-2-18,43.8,34.3,25.0,33.6,25.9,17.3,91,71,53,30.11,29.53,29,7,30,0.01
2013-2-19,29.2,20.8,13.9,18.4,6.9,0.3,78,57,30,30.43,30.12,24,6,25,0.00
2013-2-20,25.6,17.3,8.8,13.3,6.8,2.6,78,63,49,30.45,30.25,15,3,15,0.00
2013-2-21,24.7,22.8,21.5,21.3,16.0,9.4,92,77,52,30.29,29.89,21,5,23,0.00
2013-2-22,22.9,18.8,8.8,20.2,15.0,5.8,92,85,76,30.11,29.90,17,4,17,0.01
2013-2-23,39.3,21.6,3.7,29.5,16.6,0.4,92,81,65,30.09,29.89,16,3,16,0.03
2013-2-24,45.0,33.2,24.1,31.6,26.6,20.4,87,77,52,30.09,29.93,12,1,12,0.00
2013-2-25,35.5,31.1,28.1,29.3,26.7,24.3,90,84,74,30.11,29.92,18,4,18,0.00
2013-2-26,31.6,28.3,24.9,27.6,25.5,23.1,100,89,80,29.98,29.84,18,6,19,0.00
2013-2-27,41.6,32.5,25.8,28.7,25.5,22.0,91,76,54,30.15,29.96,30,9,30,0.01
2013-2-28,34.0,30.4,27.3,27.5,24.6,21.6,84,79,73,30.28,30.15,23,6,23,0.00